Time;durP1;ratioP1;P1;durP2;ratioP2;P2;SDS_P1;SDS_P2;PMS_P1;PMS_P2;Temp;Humidity;BMP_temperature;BMP_pressure;BME280_temperature;BME280_humidity;BME280_pressure;Samples;Min_cycle;Max_cycle;Signal;HPM_P1;HPM_P2
2021/09/13 00:01:31;;;;;;;8.48;5.22;;;;;;;;;;4418346;32;20617;-56
2021/09/13 00:03:57;;;;;;;5.95;4.53;;;;;;;;;;4432543;32;20315;-56
2021/09/13 00:06:22;;;;;;;8.50;4.97;;;;;;;;;;4432474;32;20213;-57
2021/09/13 00:08:48;;;;;;;6.32;4.82;;;;;;;;;;4418555;32;20566;-56
2021/09/13 00:11:13;;;;;;;8.32;4.68;;;;;;;;;;4418634;32;20245;-57
2021/09/13 00:13:39;;;;;;;8.35;4.72;;;;;;;;;;4418820;32;20397;-56
2021/09/13 00:16:05;;;;;;;10.18;5.45;;;;;;;;;;4432307;32;20296;-56
2021/09/13 00:18:31;;;;;;;7.43;5.12;;;;;;;;;;4432469;32;20197;-56
2021/09/13 00:20:56;;;;;;;10.13;5.45;;;;;;;;;;4432868;32;20659;-55
2021/09/13 00:23:22;;;;;;;7.55;5.25;;;;;;;;;;4432699;32;20279;-56
2021/09/13 00:25:47;;;;;;;9.60;5.25;;;;;;;;;;4432580;32;20233;-56
2021/09/13 00:28:13;;;;;;;8.35;5.40;;;;;;;;;;4433171;32;20758;-56
2021/09/13 00:30:39;;;;;;;10.63;5.53;;;;;;;;;;4432512;32;20283;-56
2021/09/13 00:33:04;;;;;;;5.82;4.10;;;;;;;;;;4410295;32;20700;-57
2021/09/13 00:35:30;;;;;;;7.93;4.93;;;;;;;;;;4417241;32;20286;-56
2021/09/13 00:37:56;;;;;;;9.05;4.65;;;;;;;;;;4417334;32;20401;-57
2021/09/13 00:40:22;;;;;;;11.57;4.72;;;;;;;;;;4417193;32;20243;-56
2021/09/13 00:42:48;;;;;;;8.63;5.15;;;;;;;;;;4417029;32;20304;-56
2021/09/13 00:45:13;;;;;;;6.87;5.18;;;;;;;;;;4416882;32;20299;-56
2021/09/13 00:47:39;;;;;;;17.52;5.57;;;;;;;;;;4417005;32;20272;-56
2021/09/13 00:50:05;;;;;;;9.90;4.47;;;;;;;;;;4432696;32;20708;-56
2021/09/13 00:52:31;;;;;;;14.38;5.37;;;;;;;;;;4432844;32;20279;-56
2021/09/13 00:54:59;;;;;;;8.05;4.70;;;;;;;;;;4432380;32;20205;-56
2021/09/13 00:57:25;;;;;;;10.80;5.93;;;;;;;;;;4432155;32;20288;-56
2021/09/13 00:59:51;;;;;;;6.82;5.15;;;;;;;;;;4432334;32;20268;-57
2021/09/13 01:02:16;;;;;;;10.10;5.57;;;;;;;;;;4431856;32;20306;-56
2021/09/13 01:04:42;;;;;;;12.50;5.65;;;;;;;;;;4431957;32;20672;-55
2021/09/13 01:07:07;;;;;;;11.75;4.50;;;;;;;;;;4432499;32;20259;-56
2021/09/13 01:09:33;;;;;;;7.12;4.60;;;;;;;;;;4434861;32;20217;-56
2021/09/13 01:11:59;;;;;;;11.57;4.45;;;;;;;;;;4434657;32;20671;-55
2021/09/13 01:14:34;;;;;;;6.25;4.03;;;;;;;;;;4434648;32;20296;-55
2021/09/13 01:17:00;;;;;;;7.37;5.37;;;;;;;;;;4434434;32;20599;-56
2021/09/13 01:19:25;;;;;;;9.27;6.28;;;;;;;;;;4434210;32;20225;-56
2021/09/13 01:21:52;;;;;;;12.68;8.15;;;;;;;;;;4434617;32;20708;-56
2021/09/13 01:24:17;;;;;;;12.13;5.60;;;;;;;;;;4434949;32;20328;-57
2021/09/13 01:26:43;;;;;;;8.25;5.90;;;;;;;;;;4434412;32;20210;-56
2021/09/13 01:29:08;;;;;;;9.27;6.40;;;;;;;;;;4434505;32;20273;-57
2021/09/13 01:31:34;;;;;;;8.02;6.50;;;;;;;;;;4434138;32;20753;-55
2021/09/13 01:33:59;;;;;;;8.55;6.40;;;;;;;;;;4420236;32;20644;-55
2021/09/13 01:36:25;;;;;;;11.18;7.00;;;;;;;;;;4419182;32;20328;-56
2021/09/13 01:38:50;;;;;;;12.65;6.70;;;;;;;;;;4417796;32;20299;-56
2021/09/13 01:41:16;;;;;;;11.98;6.43;;;;;;;;;;4419250;32;20193;-56
2021/09/13 01:43:41;;;;;;;10.82;5.53;;;;;;;;;;4419294;32;20312;-56
2021/09/13 01:46:07;;;;;;;13.35;6.87;;;;;;;;;;4419662;32;20305;-56
2021/09/13 01:48:32;;;;;;;9.40;5.47;;;;;;;;;;4434725;32;20276;-56
2021/09/13 01:50:58;;;;;;;8.60;6.12;;;;;;;;;;4434452;32;20244;-56
2021/09/13 01:53:23;;;;;;;7.57;5.28;;;;;;;;;;4420918;32;20343;-57
2021/09/13 01:55:48;;;;;;;11.55;6.18;;;;;;;;;;4434111;32;20252;-57
2021/09/13 01:58:14;;;;;;;7.80;5.62;;;;;;;;;;4420109;32;20485;-56
2021/09/13 02:00:40;;;;;;;10.13;4.87;;;;;;;;;;4433796;32;20260;-56
2021/09/13 02:03:05;;;;;;;8.45;5.60;;;;;;;;;;4433982;32;20286;-59
2021/09/13 02:05:30;;;;;;;6.72;5.00;;;;;;;;;;4433938;32;20576;-56
2021/09/13 02:07:56;;;;;;;10.65;5.47;;;;;;;;;;4434293;32;20702;-56
2021/09/13 02:10:21;;;;;;;10.02;5.82;;;;;;;;;;4434133;32;20215;-56
2021/09/13 02:12:47;;;;;;;11.50;5.70;;;;;;;;;;4433907;32;20291;-56
2021/09/13 02:15:13;;;;;;;10.88;6.55;;;;;;;;;;4433451;32;20267;-56
2021/09/13 02:17:38;;;;;;;6.80;4.80;;;;;;;;;;4433090;32;20384;-56
2021/09/13 02:20:04;;;;;;;5.90;4.65;;;;;;;;;;4432934;32;20581;-57
2021/09/13 02:22:30;;;;;;;5.75;4.72;;;;;;;;;;4407141;32;20311;-55
2021/09/13 02:24:55;;;;;;;7.97;4.75;;;;;;;;;;4433881;32;20237;-55
2021/09/13 02:27:21;;;;;;;12.13;5.30;;;;;;;;;;4433651;32;20344;-56
2021/09/13 02:29:46;;;;;;;12.20;6.00;;;;;;;;;;4433537;32;20216;-56
2021/09/13 02:32:11;;;;;;;7.35;5.37;;;;;;;;;;4430545;32;20232;-56
2021/09/13 02:34:37;;;;;;;16.45;6.28;;;;;;;;;;4416924;32;20229;-55
2021/09/13 02:37:02;;;;;;;8.05;6.03;;;;;;;;;;4418072;32;20608;-55
2021/09/13 02:39:28;;;;;;;8.20;5.75;;;;;;;;;;4418063;32;20289;-56
2021/09/13 02:41:54;;;;;;;9.38;6.60;;;;;;;;;;4429477;32;20318;-56
2021/09/13 02:44:19;;;;;;;7.32;4.87;;;;;;;;;;4433590;32;20255;-56
2021/09/13 02:46:45;;;;;;;11.02;6.25;;;;;;;;;;4433101;32;20724;-55
2021/09/13 02:49:10;;;;;;;9.63;6.25;;;;;;;;;;4433711;32;20327;-57
2021/09/13 02:51:35;;;;;;;8.00;5.37;;;;;;;;;;4433253;32;20193;-55
2021/09/13 02:54:01;;;;;;;9.10;5.12;;;;;;;;;;4433291;32;20269;-56
2021/09/13 02:56:26;;;;;;;11.35;5.95;;;;;;;;;;4433347;32;20569;-56
2021/09/13 02:58:52;;;;;;;7.68;5.28;;;;;;;;;;4419718;32;20287;-56
2021/09/13 03:01:17;;;;;;;14.18;4.95;;;;;;;;;;4433021;32;20228;-56
2021/09/13 03:03:43;;;;;;;8.25;6.32;;;;;;;;;;4433131;32;20620;-57
2021/09/13 03:06:09;;;;;;;10.20;6.07;;;;;;;;;;4419302;32;20284;-57
2021/09/13 03:08:35;;;;;;;12.57;6.18;;;;;;;;;;4433487;32;20314;-56
2021/09/13 03:11:03;;;;;;;10.32;6.80;;;;;;;;;;4433053;32;20232;-56
2021/09/13 03:13:28;;;;;;;8.38;6.07;;;;;;;;;;4419485;32;20229;-56
2021/09/13 03:15:53;;;;;;;9.02;5.90;;;;;;;;;;4432409;32;20843;-56
2021/09/13 03:18:19;;;;;;;8.80;6.30;;;;;;;;;;4432455;32;20310;-55
2021/09/13 03:20:44;;;;;;;9.45;6.53;;;;;;;;;;4418986;32;20259;-55
2021/09/13 03:23:10;;;;;;;12.10;6.47;;;;;;;;;;4418947;32;20660;-55
2021/09/13 03:25:35;;;;;;;11.57;6.78;;;;;;;;;;4433155;32;20640;-55
2021/09/13 03:28:01;;;;;;;9.30;6.07;;;;;;;;;;4433161;32;20294;-56
2021/09/13 03:30:26;;;;;;;19.55;6.50;;;;;;;;;;4432172;32;20278;-56
2021/09/13 03:32:52;;;;;;;10.93;6.53;;;;;;;;;;4425655;32;20268;-57
2021/09/13 03:35:17;;;;;;;9.60;6.37;;;;;;;;;;4417274;32;20248;-57
2021/09/13 03:37:43;;;;;;;7.62;5.45;;;;;;;;;;4425981;32;20267;-56
2021/09/13 03:40:09;;;;;;;9.27;5.70;;;;;;;;;;4432865;32;20291;-56
2021/09/13 03:42:34;;;;;;;10.63;5.25;;;;;;;;;;4432570;32;20360;-56
2021/09/13 03:45:00;;;;;;;9.07;5.90;;;;;;;;;;4432529;32;20217;-56
2021/09/13 03:47:25;;;;;;;8.60;5.45;;;;;;;;;;4432769;32;20683;-56
2021/09/13 03:49:51;;;;;;;8.13;5.05;;;;;;;;;;4432743;32;20556;-55
2021/09/13 03:52:16;;;;;;;15.48;5.75;;;;;;;;;;4432602;32;20325;-55
2021/09/13 03:54:42;;;;;;;9.63;6.70;;;;;;;;;;4432322;32;20220;-55
2021/09/13 03:57:07;;;;;;;8.93;5.85;;;;;;;;;;4432499;32;20235;-55
2021/09/13 03:59:33;;;;;;;10.88;7.97;;;;;;;;;;4418609;32;20251;-55
2021/09/13 04:01:59;;;;;;;9.05;6.55;;;;;;;;;;4432383;32;20609;-55
2021/09/13 04:04:28;;;;;;;9.00;5.93;;;;;;;;;;4432341;32;20672;-55
2021/09/13 04:06:59;;;;;;;8.27;5.20;;;;;;;;;;4432405;32;20269;-55
2021/09/13 04:11:57;;;;;;;8.73;5.57;;;;;;;;;;4432355;32;20212;-55
2021/09/13 04:14:26;;;;;;;9.13;5.35;;;;;;;;;;4432242;32;20266;-56
2021/09/13 04:16:52;;;;;;;9.73;5.78;;;;;;;;;;4432163;32;20241;-55
2021/09/13 04:19:17;;;;;;;11.93;5.62;;;;;;;;;;4421401;32;20355;-54
2021/09/13 04:21:43;;;;;;;11.85;5.93;;;;;;;;;;4415771;32;20674;-55
2021/09/13 04:24:09;;;;;;;8.48;5.87;;;;;;;;;;4417028;32;20391;-55
2021/09/13 04:26:34;;;;;;;10.85;6.12;;;;;;;;;;4416862;32;20272;-56
2021/09/13 04:29:00;;;;;;;7.55;5.53;;;;;;;;;;4416760;32;20406;-56
2021/09/13 04:31:29;;;;;;;15.07;6.30;;;;;;;;;;4416845;32;20687;-56
2021/09/13 04:33:54;;;;;;;14.23;7.95;;;;;;;;;;4431223;32;20300;-56
2021/09/13 04:36:20;;;;;;;20.25;7.00;;;;;;;;;;4432474;32;20277;-56
2021/09/13 04:38:46;;;;;;;15.43;7.57;;;;;;;;;;4432545;32;20276;-57
2021/09/13 04:41:12;;;;;;;11.70;7.12;;;;;;;;;;4432334;32;20252;-55
2021/09/13 04:43:38;;;;;;;10.25;6.55;;;;;;;;;;4434499;32;20272;-57
2021/09/13 04:46:03;;;;;;;12.52;6.53;;;;;;;;;;4435094;32;20280;-56
2021/09/13 04:48:29;;;;;;;9.45;6.37;;;;;;;;;;4421347;32;20440;-57
2021/09/13 04:50:55;;;;;;;9.82;6.65;;;;;;;;;;4421484;32;20308;-56
2021/09/13 04:53:21;;;;;;;13.88;7.45;;;;;;;;;;4435416;32;20271;-56
2021/09/13 04:55:47;;;;;;;9.20;5.93;;;;;;;;;;4434888;32;20613;-56
2021/09/13 04:58:13;;;;;;;24.90;6.93;;;;;;;;;;4435400;32;20283;-56
2021/09/13 05:00:39;;;;;;;11.80;6.47;;;;;;;;;;4434303;32;20289;-56
2021/09/13 05:03:04;;;;;;;12.77;7.43;;;;;;;;;;4435032;32;20337;-56
2021/09/13 05:05:30;;;;;;;16.73;7.50;;;;;;;;;;4434660;32;20702;-56
2021/09/13 05:07:55;;;;;;;11.68;6.10;;;;;;;;;;4435218;32;20627;-56
2021/09/13 05:10:21;;;;;;;19.58;7.32;;;;;;;;;;4435160;32;20652;-56
2021/09/13 05:12:46;;;;;;;17.85;8.65;;;;;;;;;;4434595;32;20347;-56
2021/09/13 05:15:12;;;;;;;17.98;7.47;;;;;;;;;;4434173;32;20232;-56
2021/09/13 05:17:37;;;;;;;26.92;9.18;;;;;;;;;;4434503;32;20291;-56
2021/09/13 05:20:04;;;;;;;16.87;9.60;;;;;;;;;;4434947;32;20221;-56
2021/09/13 05:22:30;;;;;;;15.23;6.18;;;;;;;;;;4421172;32;20267;-56
2021/09/13 05:24:55;;;;;;;9.95;6.45;;;;;;;;;;4421155;32;20682;-56
2021/09/13 05:27:21;;;;;;;13.05;8.25;;;;;;;;;;4420652;32;20628;-56
2021/09/13 05:29:46;;;;;;;9.95;7.18;;;;;;;;;;4434154;32;20340;-56
2021/09/13 05:32:12;;;;;;;16.95;8.50;;;;;;;;;;4434436;32;20503;-56
2021/09/13 05:34:37;;;;;;;10.10;6.72;;;;;;;;;;4434592;32;20221;-56
2021/09/13 05:37:03;;;;;;;7.43;5.20;;;;;;;;;;4434596;32;20189;-56
2021/09/13 05:39:29;;;;;;;14.68;6.57;;;;;;;;;;4434696;32;20301;-56
2021/09/13 05:41:54;;;;;;;11.10;6.10;;;;;;;;;;4434713;32;20276;-56
2021/09/13 05:44:20;;;;;;;10.38;5.47;;;;;;;;;;4434250;32;20584;-56
2021/09/13 05:46:46;;;;;;;12.07;5.47;;;;;;;;;;4420163;32;20252;-56
2021/09/13 05:49:11;;;;;;;11.95;6.93;;;;;;;;;;4434546;32;20511;-57
2021/09/13 05:51:45;;;;;;;8.98;5.70;;;;;;;;;;4419366;32;20303;-55
2021/09/13 05:54:11;;;;;;;10.63;6.80;;;;;;;;;;4434343;32;20358;-57
2021/09/13 05:56:36;;;;;;;8.55;5.97;;;;;;;;;;4420363;32;20250;-57
2021/09/13 05:59:02;;;;;;;10.40;6.03;;;;;;;;;;4433997;32;20280;-55
2021/09/13 06:01:27;;;;;;;9.18;6.35;;;;;;;;;;4434057;32;20600;-55
2021/09/13 06:03:53;;;;;;;9.32;5.85;;;;;;;;;;4433078;32;20682;-55
2021/09/13 06:06:18;;;;;;;15.15;6.07;;;;;;;;;;4431924;32;20224;-56
2021/09/13 06:08:44;;;;;;;12.48;6.87;;;;;;;;;;4431977;32;20296;-55
2021/09/13 06:11:09;;;;;;;9.43;5.85;;;;;;;;;;4432050;32;20217;-56
2021/09/13 06:13:35;;;;;;;12.95;6.43;;;;;;;;;;4432131;32;20795;-56
2021/09/13 06:16:01;;;;;;;16.25;6.90;;;;;;;;;;4431531;32;20565;-57
2021/09/13 06:18:26;;;;;;;14.30;7.55;;;;;;;;;;4412220;32;20312;-57
2021/09/13 06:20:52;;;;;;;11.93;7.37;;;;;;;;;;4418558;32;20336;-56
2021/09/13 06:23:18;;;;;;;13.20;7.30;;;;;;;;;;4418587;32;20585;-57
2021/09/13 06:25:43;;;;;;;13.32;7.62;;;;;;;;;;4422260;32;20252;-57
2021/09/13 06:28:09;;;;;;;12.10;6.85;;;;;;;;;;4432747;32;20280;-56
2021/09/13 06:30:34;;;;;;;13.70;7.35;;;;;;;;;;4433232;32;20648;-56
2021/09/13 06:33:00;;;;;;;16.23;7.28;;;;;;;;;;4425555;32;20283;-57
2021/09/13 06:35:25;;;;;;;17.62;7.07;;;;;;;;;;4417832;32;20259;-57
2021/09/13 06:37:51;;;;;;;14.90;8.40;;;;;;;;;;4418290;32;20272;-57
2021/09/13 06:40:16;;;;;;;10.95;6.30;;;;;;;;;;4418558;32;20510;-57
2021/09/13 06:42:41;;;;;;;13.88;7.87;;;;;;;;;;4417946;32;20348;-57
2021/09/13 06:45:10;;;;;;;9.45;7.00;;;;;;;;;;4417943;32;20229;-57
2021/09/13 06:47:45;;;;;;;13.13;7.25;;;;;;;;;;4417828;32;20209;-57
2021/09/13 06:50:18;;;;;;;9.73;6.60;;;;;;;;;;4418003;32;20370;-57
2021/09/13 06:52:45;;;;;;;9.77;6.50;;;;;;;;;;4418053;32;20286;-55
2021/09/13 06:55:11;;;;;;;13.38;7.18;;;;;;;;;;4417846;32;20319;-56
2021/09/13 06:57:37;;;;;;;10.75;6.65;;;;;;;;;;4417818;32;20329;-56
2021/09/13 07:00:10;;;;;;;12.07;7.47;;;;;;;;;;4417794;32;20213;-56
2021/09/13 07:02:38;;;;;;;12.43;7.40;;;;;;;;;;4417735;32;20223;-57
2021/09/13 07:05:05;;;;;;;12.13;6.10;;;;;;;;;;4426711;32;20319;-56
2021/09/13 07:07:31;;;;;;;11.20;7.35;;;;;;;;;;4418912;32;20324;-57
2021/09/13 07:09:57;;;;;;;14.95;7.90;;;;;;;;;;4404436;32;20252;-56
2021/09/13 07:12:22;;;;;;;13.95;6.72;;;;;;;;;;4417775;32;20725;-57
2021/09/13 07:14:47;;;;;;;13.82;8.25;;;;;;;;;;4417566;32;20316;-56
2021/09/13 07:17:13;;;;;;;15.10;7.12;;;;;;;;;;4417658;32;20198;-56
2021/09/13 07:19:39;;;;;;;15.35;7.43;;;;;;;;;;4416371;32;20573;-56
2021/09/13 07:22:05;;;;;;;14.38;7.50;;;;;;;;;;4432658;32;20318;-56
2021/09/13 07:24:30;;;;;;;16.87;7.22;;;;;;;;;;4433232;32;20292;-57
2021/09/13 07:26:55;;;;;;;7.25;5.93;;;;;;;;;;4433181;32;20197;-56
2021/09/13 07:29:21;;;;;;;9.65;6.30;;;;;;;;;;4432813;32;20259;-56
2021/09/13 07:31:46;;;;;;;14.18;8.05;;;;;;;;;;4430880;32;20706;-56
2021/09/13 07:34:12;;;;;;;10.05;6.32;;;;;;;;;;4431953;32;20293;-56
2021/09/13 07:36:37;;;;;;;11.90;6.65;;;;;;;;;;4431322;32;20213;-59
2021/09/13 07:39:05;;;;;;;10.05;6.78;;;;;;;;;;4432221;32;20660;-56
2021/09/13 07:41:30;;;;;;;13.70;7.12;;;;;;;;;;4432151;32;20276;-56
2021/09/13 07:43:56;;;;;;;10.68;6.60;;;;;;;;;;4431042;32;20370;-57
2021/09/13 07:46:22;;;;;;;10.43;6.18;;;;;;;;;;4432117;32;20227;-57
2021/09/13 07:48:47;;;;;;;12.00;6.30;;;;;;;;;;4432635;32;20275;-57
2021/09/13 07:51:13;;;;;;;18.80;6.85;;;;;;;;;;4431098;32;20228;-57
2021/09/13 07:53:38;;;;;;;7.85;5.68;;;;;;;;;;4432412;32;20267;-57
2021/09/13 07:56:04;;;;;;;10.77;6.47;;;;;;;;;;4432453;32;20271;-56
2021/09/13 07:58:29;;;;;;;17.35;7.62;;;;;;;;;;4431839;32;20316;-56
2021/09/13 08:00:55;;;;;;;12.52;6.97;;;;;;;;;;4431561;32;20341;-56
2021/09/13 08:03:20;;;;;;;13.98;6.57;;;;;;;;;;4429444;32;20323;-56
2021/09/13 08:05:46;;;;;;;10.57;6.43;;;;;;;;;;4429983;32;20260;-56
2021/09/13 08:08:12;;;;;;;12.32;7.45;;;;;;;;;;4430746;32;20318;-55
2021/09/13 08:10:39;;;;;;;19.05;7.05;;;;;;;;;;4431978;32;20252;-56
2021/09/13 08:13:04;;;;;;;13.68;6.82;;;;;;;;;;4432207;32;20481;-56
2021/09/13 08:15:30;;;;;;;11.10;6.90;;;;;;;;;;4431862;32;20224;-55
2021/09/13 08:17:55;;;;;;;18.27;6.62;;;;;;;;;;4433932;32;20371;-56
2021/09/13 08:20:21;;;;;;;17.05;6.75;;;;;;;;;;4434224;32;20228;-56
2021/09/13 08:22:46;;;;;;;11.68;7.37;;;;;;;;;;4435041;32;20786;-56
2021/09/13 08:25:12;;;;;;;17.50;7.85;;;;;;;;;;4435423;32;20282;-56
2021/09/13 08:27:38;;;;;;;14.85;6.15;;;;;;;;;;4435606;32;20287;-57
2021/09/13 08:30:05;;;;;;;11.95;6.47;;;;;;;;;;4433848;32;20255;-57
2021/09/13 08:32:31;;;;;;;18.80;6.85;;;;;;;;;;4429516;32;20622;-57
2021/09/13 08:34:59;;;;;;;16.42;6.87;;;;;;;;;;4419914;32;20209;-57
2021/09/13 08:37:24;;;;;;;13.07;6.93;;;;;;;;;;4419736;32;20651;-58
2021/09/13 08:39:50;;;;;;;7.75;6.43;;;;;;;;;;4419678;32;20299;-56
2021/09/13 08:42:16;;;;;;;17.50;7.25;;;;;;;;;;4432157;32;20267;-57
2021/09/13 08:44:44;;;;;;;17.20;7.12;;;;;;;;;;4434886;32;20270;-57
2021/09/13 08:47:26;;;;;;;15.70;7.00;;;;;;;;;;4435051;32;20677;-57
2021/09/13 08:49:56;;;;;;;12.82;7.18;;;;;;;;;;4435066;32;20216;-56
2021/09/13 08:52:22;;;;;;;13.82;7.25;;;;;;;;;;4435298;32;20275;-56
2021/09/13 08:54:47;;;;;;;10.38;6.45;;;;;;;;;;4435093;32;20217;-56
2021/09/13 08:57:17;;;;;;;12.30;6.62;;;;;;;;;;4434953;32;20193;-56
2021/09/13 08:59:44;;;;;;;8.40;6.85;;;;;;;;;;4415787;32;20331;-56
2021/09/13 09:02:13;;;;;;;9.60;6.55;;;;;;;;;;4434511;32;20244;-56
2021/09/13 09:04:43;;;;;;;12.48;7.35;;;;;;;;;;4429457;32;20286;-57
2021/09/13 09:07:12;;;;;;;9.10;6.53;;;;;;;;;;4434572;32;20232;-56
2021/09/13 09:09:37;;;;;;;9.95;6.43;;;;;;;;;;4424872;32;20251;-56
2021/09/13 09:12:08;;;;;;;10.13;6.65;;;;;;;;;;4428794;32;20597;-56
2021/09/13 09:14:44;;;;;;;14.02;6.07;;;;;;;;;;4435162;32;20205;-56
2021/09/13 09:17:21;;;;;;;8.45;5.70;;;;;;;;;;4434672;32;20213;-56
2021/09/13 09:19:47;;;;;;;14.23;7.25;;;;;;;;;;4435339;32;20265;-57
2021/09/13 09:22:20;;;;;;;5.78;4.70;;;;;;;;;;4435408;32;20541;-56
2021/09/13 09:24:48;;;;;;;9.40;4.85;;;;;;;;;;4435457;32;20244;-56
2021/09/13 09:27:13;;;;;;;11.40;6.37;;;;;;;;;;4434837;32;20214;-56
2021/09/13 09:29:39;;;;;;;7.25;5.25;;;;;;;;;;4434414;32;20216;-56
2021/09/13 09:32:05;;;;;;;9.48;5.85;;;;;;;;;;4432739;32;20310;-56
2021/09/13 09:34:37;;;;;;;8.68;5.15;;;;;;;;;;4428878;32;20672;-57
2021/09/13 09:37:11;;;;;;;6.62;4.62;;;;;;;;;;4418314;32;20225;-56
2021/09/13 09:39:47;;;;;;;6.43;4.85;;;;;;;;;;4419877;32;20319;-56
2021/09/13 09:42:25;;;;;;;7.90;5.50;;;;;;;;;;4419295;32;20432;-56
2021/09/13 09:44:51;;;;;;;7.85;5.25;;;;;;;;;;4419317;32;20798;-56
2021/09/13 09:47:20;;;;;;;10.13;5.20;;;;;;;;;;4419298;32;20540;-57
2021/09/13 09:49:52;;;;;;;17.35;5.65;;;;;;;;;;4420946;32;20240;-57
2021/09/13 09:52:39;;;;;;;8.27;4.93;;;;;;;;;;4420567;32;20296;-56
2021/09/13 09:55:08;;;;;;;12.45;4.53;;;;;;;;;;4420157;32;20572;-56
2021/09/13 09:57:34;;;;;;;7.18;4.78;;;;;;;;;;4434799;32;20205;-56
2021/09/13 10:00:17;;;;;;;8.88;5.62;;;;;;;;;;4434766;32;20263;-56
2021/09/13 10:02:43;;;;;;;8.75;5.43;;;;;;;;;;4434774;32;20278;-56
2021/09/13 10:05:08;;;;;;;7.68;5.03;;;;;;;;;;4433830;32;20213;-56
2021/09/13 10:07:34;;;;;;;7.55;4.60;;;;;;;;;;4419595;32;20316;-56
2021/09/13 10:10:00;;;;;;;8.18;5.18;;;;;;;;;;4434460;32;20273;-56
2021/09/13 10:12:25;;;;;;;7.90;5.60;;;;;;;;;;4434889;32;20736;-56
2021/09/13 10:14:51;;;;;;;11.90;5.35;;;;;;;;;;4434387;32;20257;-56
2021/09/13 10:17:17;;;;;;;6.20;4.95;;;;;;;;;;4434547;32;20196;-56
2021/09/13 10:19:43;;;;;;;10.50;5.45;;;;;;;;;;4434351;32;20744;-56
2021/09/13 10:22:08;;;;;;;6.57;4.65;;;;;;;;;;4434335;32;20229;-56
2021/09/13 10:24:36;;;;;;;8.63;5.07;;;;;;;;;;4434394;32;20267;-56
2021/09/13 10:27:05;;;;;;;11.10;5.97;;;;;;;;;;4433871;32;20193;-56
2021/09/13 10:29:31;;;;;;;10.63;5.10;;;;;;;;;;4434047;32;20300;-56
2021/09/13 10:32:02;;;;;;;6.60;5.15;;;;;;;;;;4420407;32;20550;-56
2021/09/13 10:34:42;;;;;;;6.30;4.53;;;;;;;;;;4434428;32;20733;-56
2021/09/13 10:37:13;;;;;;;7.35;5.18;;;;;;;;;;4434480;32;20188;-57
2021/09/13 10:39:57;;;;;;;6.68;4.40;;;;;;;;;;4433962;32;20240;-57
2021/09/13 10:42:38;;;;;;;8.10;5.18;;;;;;;;;;4434245;32;20867;-57
2021/09/13 10:45:05;;;;;;;7.78;5.15;;;;;;;;;;4434416;32;20255;-57
2021/09/13 10:47:31;;;;;;;8.05;5.18;;;;;;;;;;4434292;32;20514;-57
2021/09/13 10:50:19;;;;;;;8.50;5.50;;;;;;;;;;4434357;32;20224;-57
2021/09/13 10:52:46;;;;;;;8.73;5.00;;;;;;;;;;4434039;32;20224;-57
2021/09/13 10:55:21;;;;;;;10.23;4.78;;;;;;;;;;4433844;32;20299;-57
2021/09/13 10:58:02;;;;;;;7.25;4.68;;;;;;;;;;4419685;32;20267;-57
2021/09/13 11:00:54;;;;;;;11.02;5.20;;;;;;;;;;4423241;32;20209;-56
2021/09/13 11:03:22;;;;;;;7.87;4.70;;;;;;;;;;4415890;32;20248;-56
2021/09/13 11:06:13;;;;;;;6.32;4.65;;;;;;;;;;4419575;32;20220;-56
2021/09/13 11:08:39;;;;;;;6.93;4.43;;;;;;;;;;4433565;32;20284;-56
2021/09/13 11:11:08;;;;;;;6.05;4.50;;;;;;;;;;4433348;32;20303;-56
2021/09/13 11:13:33;;;;;;;11.35;5.28;;;;;;;;;;4433526;32;20362;-56
2021/09/13 11:15:59;;;;;;;8.00;5.12;;;;;;;;;;4433712;32;20233;-57
2021/09/13 11:18:38;;;;;;;8.90;4.40;;;;;;;;;;4417707;32;20321;-56
2021/09/13 11:21:24;;;;;;;10.80;4.45;;;;;;;;;;4417534;32;20293;-56
2021/09/13 11:24:17;;;;;;;8.57;5.12;;;;;;;;;;4418474;32;20196;-57
2021/09/13 11:26:44;;;;;;;8.05;4.97;;;;;;;;;;4417683;32;20230;-56
2021/09/13 11:29:12;;;;;;;7.32;5.00;;;;;;;;;;4417711;32;20213;-56
2021/09/13 11:31:48;;;;;;;7.75;5.30;;;;;;;;;;4417631;32;20223;-57
2021/09/13 11:34:14;;;;;;;7.25;4.70;;;;;;;;;;4424977;32;20313;-56
2021/09/13 11:36:53;;;;;;;7.87;4.55;;;;;;;;;;4433735;32;20268;-57
2021/09/13 11:39:19;;;;;;;7.22;4.20;;;;;;;;;;4433193;32;20224;-57
2021/09/13 11:42:02;;;;;;;9.77;4.50;;;;;;;;;;4433482;32;20292;-57
2021/09/13 11:44:28;;;;;;;7.78;5.05;;;;;;;;;;4433352;32;20277;-57
2021/09/13 11:46:59;;;;;;;6.97;4.50;;;;;;;;;;4433226;32;20213;-57
2021/09/13 11:49:30;;;;;;;6.60;4.05;;;;;;;;;;4433705;32;20288;-57
2021/09/13 11:52:04;;;;;;;6.68;3.90;;;;;;;;;;4433218;32;20536;-57
2021/09/13 11:54:31;;;;;;;6.93;4.22;;;;;;;;;;4419125;32;20287;-57
2021/09/13 11:56:57;;;;;;;5.82;3.58;;;;;;;;;;4433247;32;20201;-57
2021/09/13 11:59:24;;;;;;;5.15;4.03;;;;;;;;;;4433314;32;20325;-57
2021/09/13 12:02:01;;;;;;;9.55;5.03;;;;;;;;;;4433117;32;20601;-57
2021/09/13 12:04:28;;;;;;;7.75;3.90;;;;;;;;;;4429656;32;20243;-57
2021/09/13 12:07:11;;;;;;;6.80;3.97;;;;;;;;;;4432601;32;20201;-58
2021/09/13 12:09:40;;;;;;;9.00;4.22;;;;;;;;;;4418517;32;20220;-58
2021/09/13 12:12:06;;;;;;;8.45;4.60;;;;;;;;;;4418491;32;20283;-57
2021/09/13 12:14:34;;;;;;;10.50;4.60;;;;;;;;;;4432992;32;20217;-57
2021/09/13 12:17:15;;;;;;;7.65;4.60;;;;;;;;;;4433189;32;20639;-58
2021/09/13 12:19:44;;;;;;;8.77;5.37;;;;;;;;;;4433247;32;20212;-57
2021/09/13 12:22:11;;;;;;;6.07;4.60;;;;;;;;;;4419012;32;20566;-57
2021/09/13 12:24:37;;;;;;;7.15;3.83;;;;;;;;;;4433384;32;20220;-57
2021/09/13 12:27:14;;;;;;;7.12;3.40;;;;;;;;;;4418846;32;20530;-57
2021/09/13 12:30:00;;;;;;;4.70;4.20;;;;;;;;;;4418964;32;20260;-58
2021/09/13 12:32:34;;;;;;;5.82;4.05;;;;;;;;;;4428489;32;20312;-57
2021/09/13 12:35:06;;;;;;;12.50;4.12;;;;;;;;;;4417050;32;20718;-57
2021/09/13 12:37:40;;;;;;;7.25;3.22;;;;;;;;;;4417514;32;20253;-57
2021/09/13 12:40:14;;;;;;;5.30;3.70;;;;;;;;;;4417822;32;20554;-57
2021/09/13 12:43:01;;;;;;;8.18;3.47;;;;;;;;;;4418097;32;20219;-57
2021/09/13 12:45:30;;;;;;;4.78;3.45;;;;;;;;;;4417322;32;20221;-57
2021/09/13 12:48:00;;;;;;;6.32;3.85;;;;;;;;;;4417604;32;20312;-58
2021/09/13 12:50:28;;;;;;;7.15;3.10;;;;;;;;;;4417536;32;20279;-58
2021/09/13 12:52:54;;;;;;;5.25;3.17;;;;;;;;;;4417627;32;20678;-58
2021/09/13 12:55:21;;;;;;;3.20;2.50;;;;;;;;;;4415867;32;20229;-58
2021/09/13 12:57:47;;;;;;;4.18;2.87;;;;;;;;;;4416967;32;20218;-58
2021/09/13 13:00:14;;;;;;;5.97;3.72;;;;;;;;;;4417117;32;20213;-58
2021/09/13 13:02:43;;;;;;;4.53;3.45;;;;;;;;;;4417953;32;20232;-58
2021/09/13 13:05:34;;;;;;;5.50;3.60;;;;;;;;;;4434644;32;20224;-57
2021/09/13 13:08:04;;;;;;;5.47;3.33;;;;;;;;;;4423700;32;20272;-58
2021/09/13 13:10:32;;;;;;;7.35;3.53;;;;;;;;;;4435083;32;20300;-58
2021/09/13 13:12:58;;;;;;;5.95;3.55;;;;;;;;;;4420305;32;20305;-57
2021/09/13 13:15:24;;;;;;;9.30;4.15;;;;;;;;;;4435028;32;20291;-57
2021/09/13 13:17:50;;;;;;;5.18;3.35;;;;;;;;;;4434978;32;20343;-58
2021/09/13 13:20:17;;;;;;;6.65;4.22;;;;;;;;;;4435166;32;20236;-56
2021/09/13 13:22:43;;;;;;;5.05;3.30;;;;;;;;;;4434825;32;20232;-57
2021/09/13 13:25:09;;;;;;;3.75;3.08;;;;;;;;;;4435136;32;20228;-57
2021/09/13 13:27:34;;;;;;;4.25;3.15;;;;;;;;;;4434315;32;20296;-58
2021/09/13 13:30:01;;;;;;;6.62;4.00;;;;;;;;;;4434935;32;20679;-57
2021/09/13 13:32:26;;;;;;;9.70;3.62;;;;;;;;;;4430503;32;20217;-58
2021/09/13 13:34:52;;;;;;;5.12;3.40;;;;;;;;;;4419637;32;20360;-58
2021/09/13 13:37:17;;;;;;;5.65;3.03;;;;;;;;;;4419232;32;20303;-56
2021/09/13 13:39:43;;;;;;;11.68;3.72;;;;;;;;;;4419557;32;20302;-57
2021/09/13 13:42:08;;;;;;;7.90;4.07;;;;;;;;;;4416797;32;20594;-58
2021/09/13 13:44:34;;;;;;;3.60;3.22;;;;;;;;;;4417822;32;20233;-58
2021/09/13 13:46:59;;;;;;;6.20;3.55;;;;;;;;;;4418688;32;20190;-58
2021/09/13 13:49:25;;;;;;;6.47;3.50;;;;;;;;;;4419109;32;20723;-58
2021/09/13 13:51:50;;;;;;;5.87;3.47;;;;;;;;;;4417829;32;20244;-58
2021/09/13 13:54:16;;;;;;;6.00;3.85;;;;;;;;;;4419008;32;20336;-57
2021/09/13 13:56:41;;;;;;;5.90;3.45;;;;;;;;;;4418795;32;20293;-58
2021/09/13 13:59:06;;;;;;;4.47;2.87;;;;;;;;;;4418054;32;20353;-58
2021/09/13 14:01:33;;;;;;;6.07;3.60;;;;;;;;;;4430515;32;20234;-58
2021/09/13 14:04:00;;;;;;;5.97;3.28;;;;;;;;;;4432872;32;20703;-58
2021/09/13 14:06:25;;;;;;;6.65;3.62;;;;;;;;;;4418125;32;20392;-58
2021/09/13 14:08:51;;;;;;;5.47;3.25;;;;;;;;;;4432941;32;20287;-57
2021/09/13 14:11:16;;;;;;;4.82;3.72;;;;;;;;;;4433306;32;20306;-59
2021/09/13 14:13:42;;;;;;;10.02;4.75;;;;;;;;;;4421022;32;20352;-57
2021/09/13 14:16:07;;;;;;;6.87;3.92;;;;;;;;;;4434758;32;20313;-57
2021/09/13 14:18:33;;;;;;;5.25;3.97;;;;;;;;;;4434231;32;20198;-58
2021/09/13 14:21:01;;;;;;;8.27;3.60;;;;;;;;;;4434831;32;20220;-58
2021/09/13 14:23:27;;;;;;;7.72;4.25;;;;;;;;;;4434453;32;20188;-57
2021/09/13 14:25:52;;;;;;;6.28;4.37;;;;;;;;;;4434527;32;20572;-57
2021/09/13 14:28:18;;;;;;;3.97;3.15;;;;;;;;;;4434251;32;20340;-57
2021/09/13 14:30:43;;;;;;;4.43;3.25;;;;;;;;;;4434540;32;20231;-57
2021/09/13 14:33:09;;;;;;;6.97;3.65;;;;;;;;;;4424871;32;20268;-58
2021/09/13 14:35:34;;;;;;;10.77;4.78;;;;;;;;;;4419277;32;20360;-57
2021/09/13 14:38:00;;;;;;;5.70;4.45;;;;;;;;;;4418523;32;20232;-58
2021/09/13 14:40:26;;;;;;;9.63;4.35;;;;;;;;;;4418714;32;20221;-58
2021/09/13 14:42:51;;;;;;;6.85;3.83;;;;;;;;;;4419500;32;20731;-57